Time;durP1;ratioP1;P1;durP2;ratioP2;P2;SDS_P1;SDS_P2;PMS_P1;PMS_P2;Temp;Humidity;BMP_temperature;BMP_pressure;BME280_temperature;BME280_humidity;BME280_pressure;Samples;Min_cycle;Max_cycle;Signal;HPM_P1;HPM_P2
2020/12/03 00:00:53;;;;;;;41.95;18.38;;;3.40;99.90;;;;;;5072514;28;20206;-75
2020/12/03 00:03:22;;;;;;;40.08;18.40;;;3.60;99.90;;;;;;5071639;28;20220;-74
2020/12/03 00:05:54;;;;;;;31.10;16.45;;;3.80;99.90;;;;;;5072200;28;20214;-75
2020/12/03 00:08:22;;;;;;;32.20;17.55;;;3.80;99.90;;;;;;5071999;28;20202;-75
2020/12/03 00:10:49;;;;;;;34.00;16.83;;;3.40;99.90;;;;;;5092319;28;20706;-75
2020/12/03 00:13:20;;;;;;;37.08;18.77;;;3.50;99.90;;;;;;5090724;28;20210;-75
2020/12/03 00:15:52;;;;;;;36.22;17.63;;;3.60;99.90;;;;;;5071411;28;20233;-75
2020/12/03 00:18:19;;;;;;;36.33;17.67;;;3.40;99.90;;;;;;5071162;28;20760;-75
2020/12/03 00:20:46;;;;;;;33.20;18.42;;;3.30;99.90;;;;;;5072271;28;20275;-75
2020/12/03 00:23:13;;;;;;;38.58;18.35;;;3.40;99.90;;;;;;5071986;28;20202;-75
2020/12/03 00:25:39;;;;;;;39.72;18.35;;;3.40;99.90;;;;;;5071855;28;20217;-75
2020/12/03 00:28:06;;;;;;;32.20;16.60;;;3.60;99.90;;;;;;5071318;28;20209;-75
2020/12/03 00:30:32;;;;;;;30.92;15.95;;;3.60;99.90;;;;;;5071528;28;20198;-75
2020/12/03 00:33:00;;;;;;;32.85;16.10;;;3.90;99.90;;;;;;5071326;28;20325;-75
2020/12/03 00:35:26;;;;;;;34.20;18.23;;;3.80;99.90;;;;;;5071075;28;20217;-75
2020/12/03 00:37:53;;;;;;;33.03;15.32;;;3.80;99.90;;;;;;5071290;28;20205;-75
2020/12/03 00:40:21;;;;;;;31.40;15.85;;;3.50;99.90;;;;;;5071257;28;20725;-75
2020/12/03 00:42:48;;;;;;;35.92;17.15;;;3.70;99.90;;;;;;5070940;28;20601;-75
2020/12/03 00:45:15;;;;;;;36.85;17.80;;;3.50;99.90;;;;;;5071331;28;20202;-75
2020/12/03 00:47:43;;;;;;;33.53;17.50;;;3.60;99.90;;;;;;5070341;28;20206;-75
2020/12/03 00:50:13;;;;;;;34.95;17.42;;;3.40;99.90;;;;;;5070887;28;20244;-75
2020/12/03 00:52:40;;;;;;;34.05;17.33;;;3.40;99.90;;;;;;5070331;28;20691;-75
2020/12/03 00:55:07;;;;;;;35.70;17.50;;;3.40;99.90;;;;;;5070778;28;20233;-75
2020/12/03 00:57:33;;;;;;;38.53;18.50;;;3.30;99.90;;;;;;5070913;28;20205;-75
2020/12/03 01:00:00;;;;;;;38.22;18.25;;;3.50;99.90;;;;;;5069127;28;20221;-74
2020/12/03 01:02:27;;;;;;;36.47;18.35;;;3.30;99.90;;;;;;5073748;28;20305;-75
2020/12/03 01:04:53;;;;;;;36.70;18.70;;;3.20;99.90;;;;;;5083528;28;20653;-74
2020/12/03 01:07:21;;;;;;;36.22;18.30;;;3.60;99.90;;;;;;5071179;28;20303;-75
2020/12/03 01:09:47;;;;;;;35.25;17.98;;;3.50;99.90;;;;;;5073360;28;20244;-75
2020/12/03 01:12:14;;;;;;;36.92;19.52;;;3.40;99.90;;;;;;5070459;28;20237;-75
2020/12/03 01:14:40;;;;;;;38.55;18.85;;;3.50;99.90;;;;;;5070106;28;20202;-75
2020/12/03 01:17:10;;;;;;;38.42;18.67;;;3.40;99.90;;;;;;5070253;28;20206;-74
2020/12/03 01:19:37;;;;;;;40.67;17.92;;;3.40;99.90;;;;;;5069478;28;20587;-75
2020/12/03 01:22:03;;;;;;;35.35;18.20;;;3.30;99.90;;;;;;5070685;28;20230;-75
2020/12/03 01:24:31;;;;;;;42.25;20.15;;;3.40;99.90;;;;;;5069570;28;20202;-75
2020/12/03 01:26:57;;;;;;;34.72;17.70;;;3.60;99.90;;;;;;5069694;28;20210;-74
2020/12/03 01:29:24;;;;;;;33.67;18.35;;;3.80;99.90;;;;;;5069924;28;20575;-74
2020/12/03 01:31:51;;;;;;;35.17;18.58;;;3.80;99.90;;;;;;5070373;28;20248;-74
2020/12/03 01:34:17;;;;;;;35.95;18.83;;;3.40;99.90;;;;;;5069879;28;20206;-75
2020/12/03 01:36:44;;;;;;;37.40;18.10;;;3.50;99.90;;;;;;5082073;28;20214;-74
2020/12/03 01:39:10;;;;;;;36.67;18.30;;;3.20;99.90;;;;;;5069471;28;20692;-74
2020/12/03 01:41:38;;;;;;;38.65;19.27;;;3.50;99.90;;;;;;5069177;28;20229;-74
2020/12/03 01:44:04;;;;;;;43.67;20.42;;;3.30;99.90;;;;;;5070178;28;20217;-74
2020/12/03 01:46:31;;;;;;;38.83;19.50;;;3.70;99.90;;;;;;5069176;28;20202;-75
2020/12/03 01:49:04;;;;;;;36.70;18.02;;;3.60;99.90;;;;;;5069491;28;20201;-74
2020/12/03 01:51:34;;;;;;;44.58;20.38;;;3.60;99.90;;;;;;5069775;28;20275;-75
2020/12/03 01:54:04;;;;;;;40.92;19.70;;;3.40;99.90;;;;;;5070097;28;20209;-75
2020/12/03 01:56:59;;;;;;;37.70;19.00;;;3.40;99.90;;;;;;5069345;28;20627;-75
2020/12/03 01:59:32;;;;;;;41.03;18.85;;;3.40;99.90;;;;;;5069119;28;20590;-74
2020/12/03 02:01:59;;;;;;;38.60;18.90;;;3.40;99.90;;;;;;5069375;28;20229;-75
2020/12/03 02:04:26;;;;;;;36.67;18.88;;;3.50;99.90;;;;;;5069428;28;20225;-74
2020/12/03 02:06:59;;;;;;;34.97;17.50;;;3.50;99.90;;;;;;5069340;28;20217;-74
2020/12/03 02:09:26;;;;;;;39.97;19.58;;;3.50;99.90;;;;;;5074708;28;20246;-74
2020/12/03 02:11:54;;;;;;;41.28;20.67;;;3.50;99.90;;;;;;5069492;28;20234;-74
2020/12/03 02:14:20;;;;;;;39.40;19.90;;;3.40;99.90;;;;;;5068776;28;20237;-74
2020/12/03 02:16:47;;;;;;;42.17;20.58;;;3.30;99.90;;;;;;5069398;28;20218;-75
2020/12/03 02:19:18;;;;;;;38.38;19.20;;;3.20;99.90;;;;;;5069132;28;20569;-74
2020/12/03 02:21:46;;;;;;;40.50;20.15;;;3.30;99.90;;;;;;5069842;28;20230;-74
2020/12/03 02:24:13;;;;;;;35.55;18.83;;;3.30;99.90;;;;;;5069393;28;20871;-74
2020/12/03 02:26:49;;;;;;;36.65;17.95;;;3.20;99.90;;;;;;5069322;28;20202;-75
2020/12/03 02:29:18;;;;;;;35.08;19.20;;;3.30;99.90;;;;;;5068898;28;20285;-75
2020/12/03 02:31:44;;;;;;;40.00;20.05;;;3.40;99.90;;;;;;5068740;28;20303;-74
2020/12/03 02:34:11;;;;;;;40.80;18.95;;;3.40;99.90;;;;;;5068489;28;20219;-74
2020/12/03 02:36:37;;;;;;;37.47;19.33;;;3.30;99.90;;;;;;5068440;28;20275;-75
2020/12/03 02:39:05;;;;;;;39.47;20.50;;;3.30;99.90;;;;;;5067931;28;20238;-74
2020/12/03 02:41:32;;;;;;;39.35;19.63;;;3.20;99.90;;;;;;5068604;28;20229;-74
2020/12/03 02:43:58;;;;;;;39.22;21.23;;;3.20;99.90;;;;;;5068783;28;20209;-74
2020/12/03 02:46:25;;;;;;;41.38;21.17;;;3.00;99.90;;;;;;5068182;28;20209;-74
2020/12/03 02:48:52;;;;;;;37.63;21.33;;;3.30;99.90;;;;;;5068163;28;20620;-74
2020/12/03 02:51:18;;;;;;;41.33;20.88;;;3.10;99.90;;;;;;5069228;28;20328;-74
2020/12/03 02:53:45;;;;;;;38.88;21.08;;;3.20;99.90;;;;;;5068629;28;20239;-74
2020/12/03 02:56:13;;;;;;;44.97;20.05;;;3.20;99.90;;;;;;5068878;28;20210;-74
2020/12/03 02:58:39;;;;;;;42.50;20.00;;;3.50;99.90;;;;;;5067980;28;20202;-74
2020/12/03 03:01:06;;;;;;;41.60;21.35;;;3.30;99.90;;;;;;5068174;28;20237;-74
2020/12/03 03:03:32;;;;;;;48.28;21.40;;;3.20;99.90;;;;;;5068371;28;20248;-75
2020/12/03 03:05:59;;;;;;;42.13;22.30;;;3.10;99.90;;;;;;5068789;28;20579;-74
2020/12/03 03:08:26;;;;;;;48.83;23.63;;;3.20;99.90;;;;;;5068385;28;20197;-74
2020/12/03 03:10:52;;;;;;;44.10;22.25;;;3.10;99.90;;;;;;5069203;28;20216;-74
2020/12/03 03:13:20;;;;;;;43.53;22.60;;;2.80;99.90;;;;;;5068513;28;20255;-74
2020/12/03 03:15:47;;;;;;;48.83;22.88;;;2.90;99.90;;;;;;5068213;28;20258;-75
2020/12/03 03:18:14;;;;;;;50.03;25.15;;;3.00;99.90;;;;;;5068414;28;20281;-75
2020/12/03 03:20:40;;;;;;;44.38;22.58;;;3.00;99.90;;;;;;5068408;28;20217;-75
2020/12/03 03:23:07;;;;;;;41.35;21.80;;;2.80;99.90;;;;;;5068436;28;20250;-75
2020/12/03 03:25:34;;;;;;;41.35;22.13;;;3.00;99.90;;;;;;5068193;28;20202;-75
2020/12/03 03:28:00;;;;;;;42.25;23.05;;;3.00;99.90;;;;;;5068438;28;20294;-75
2020/12/03 03:30:28;;;;;;;47.85;22.70;;;3.00;99.90;;;;;;5068129;28;20202;-74
2020/12/03 03:32:54;;;;;;;50.55;24.17;;;2.80;99.90;;;;;;5068732;28;20233;-75
2020/12/03 03:35:21;;;;;;;42.28;23.05;;;2.80;99.90;;;;;;5068183;28;20206;-74
2020/12/03 03:37:48;;;;;;;39.55;21.25;;;3.10;99.90;;;;;;5068091;28;20301;-75
2020/12/03 03:40:14;;;;;;;45.55;23.30;;;2.90;99.90;;;;;;5068394;28;20218;-75
2020/12/03 03:42:42;;;;;;;42.85;22.90;;;3.00;99.90;;;;;;5068363;28;20688;-75
2020/12/03 03:45:09;;;;;;;47.97;22.15;;;3.00;99.90;;;;;;5067563;28;20293;-75
2020/12/03 03:47:36;;;;;;;51.72;23.40;;;2.80;99.90;;;;;;5068832;28;20289;-75
2020/12/03 03:50:04;;;;;;;44.63;22.60;;;2.70;99.90;;;;;;5070996;28;20232;-75
2020/12/03 03:52:31;;;;;;;42.40;21.55;;;2.80;99.90;;;;;;5072099;28;20233;-75
2020/12/03 03:54:57;;;;;;;46.92;22.45;;;2.90;99.90;;;;;;5071914;28;20206;-75
2020/12/03 03:57:24;;;;;;;45.75;21.95;;;2.80;99.90;;;;;;5072036;28;20214;-75
2020/12/03 03:59:51;;;;;;;43.10;24.48;;;2.90;99.90;;;;;;5070665;28;20290;-75
2020/12/03 04:02:18;;;;;;;46.42;22.77;;;3.10;99.90;;;;;;5071792;28;20233;-76
2020/12/03 04:04:46;;;;;;;41.83;22.35;;;3.20;99.90;;;;;;5072096;28;20267;-75
2020/12/03 04:07:12;;;;;;;41.25;23.95;;;3.10;99.90;;;;;;5072413;28;20205;-75
2020/12/03 04:09:39;;;;;;;43.45;22.25;;;3.20;99.90;;;;;;5081514;28;20622;-75
2020/12/03 04:12:06;;;;;;;43.10;22.52;;;3.40;99.90;;;;;;5092006;28;20715;-75
2020/12/03 04:14:33;;;;;;;43.20;21.02;;;3.40;99.90;;;;;;5075516;28;20635;-75
2020/12/03 04:17:00;;;;;;;36.80;21.48;;;3.40;99.90;;;;;;5071630;28;20676;-75
2020/12/03 04:19:26;;;;;;;44.08;21.33;;;3.40;99.90;;;;;;5071450;28;20723;-75
2020/12/03 04:21:54;;;;;;;40.83;20.92;;;3.40;99.90;;;;;;5071135;28;20226;-75
2020/12/03 04:24:20;;;;;;;44.17;21.85;;;3.40;99.90;;;;;;5071272;28;20202;-75
2020/12/03 04:26:47;;;;;;;43.97;22.30;;;3.50;99.90;;;;;;5071867;28;20225;-75
2020/12/03 04:29:14;;;;;;;44.45;22.75;;;3.60;99.90;;;;;;5070996;28;20603;-75
2020/12/03 04:31:41;;;;;;;42.20;22.25;;;3.50;99.90;;;;;;5071096;28;20283;-75
2020/12/03 04:34:08;;;;;;;38.97;20.05;;;3.70;99.90;;;;;;5071193;28;20202;-75
2020/12/03 04:36:34;;;;;;;39.10;21.08;;;3.50;99.90;;;;;;5072297;28;20637;-75
2020/12/03 04:39:03;;;;;;;44.00;23.40;;;3.60;99.90;;;;;;5071669;28;20202;-75
2020/12/03 04:41:30;;;;;;;40.95;21.17;;;3.70;99.90;;;;;;5071604;28;20226;-75
2020/12/03 04:44:02;;;;;;;37.70;19.27;;;3.70;99.90;;;;;;5070778;28;20616;-75
2020/12/03 04:46:32;;;;;;;41.05;21.83;;;3.70;99.90;;;;;;5070629;28;20210;-75
2020/12/03 04:49:25;;;;;;;42.60;20.85;;;3.90;99.90;;;;;;5071162;28;20214;-75
2020/12/03 04:52:24;;;;;;;39.78;20.90;;;3.90;99.90;;;;;;5071327;28;20248;-76
2020/12/03 04:55:00;;;;;;;38.50;19.75;;;3.80;99.90;;;;;;5068347;28;20791;-75
2020/12/03 04:57:33;;;;;;;38.08;20.80;;;3.70;99.90;;;;;;5071275;28;20201;-75
2020/12/03 05:00:04;;;;;;;37.78;20.73;;;3.90;99.90;;;;;;5070008;28;20575;-75
2020/12/03 05:03:02;;;;;;;38.80;19.80;;;3.60;99.90;;;;;;5070983;28;20248;-75
2020/12/03 05:05:37;;;;;;;35.15;19.27;;;3.70;99.90;;;;;;5025162;28;20241;-76
2020/12/03 05:08:08;;;;;;;33.70;18.63;;;3.80;99.90;;;;;;5057080;28;20587;-75
2020/12/03 05:10:44;;;;;;;37.65;20.35;;;3.70;99.90;;;;;;5088877;28;20693;-75
2020/12/03 05:13:15;;;;;;;29.52;19.27;;;3.60;99.90;;;;;;5088701;28;20209;-75
2020/12/03 05:15:42;;;;;;;35.38;19.13;;;3.80;99.90;;;;;;5070873;28;20244;-75
2020/12/03 05:18:25;;;;;;;32.05;18.35;;;3.80;99.90;;;;;;5070238;28;20263;-75
2020/12/03 05:20:53;;;;;;;36.58;18.40;;;3.80;99.90;;;;;;5064422;28;20230;-75
2020/12/03 05:23:22;;;;;;;34.28;17.25;;;4.00;99.90;;;;;;5070312;28;20206;-75
2020/12/03 05:25:51;;;;;;;35.60;19.15;;;3.90;99.90;;;;;;5070988;28;20210;-75
2020/12/03 05:28:56;;;;;;;37.08;19.65;;;3.90;99.90;;;;;;5070273;28;20206;-75
2020/12/03 05:31:29;;;;;;;34.85;19.17;;;3.80;99.90;;;;;;5059016;28;20284;-75
2020/12/03 05:33:59;;;;;;;37.22;18.80;;;3.80;99.90;;;;;;5070297;28;20213;-75
2020/12/03 05:36:31;;;;;;;36.53;19.35;;;3.70;99.90;;;;;;5070216;28;20217;-75
2020/12/03 05:39:00;;;;;;;35.42;20.30;;;3.90;99.90;;;;;;5069295;28;20220;-75
2020/12/03 05:41:31;;;;;;;31.48;18.75;;;3.80;99.90;;;;;;5069719;28;20225;-75
2020/12/03 05:43:57;;;;;;;30.50;18.30;;;3.90;99.90;;;;;;5070433;28;20205;-75
2020/12/03 05:46:26;;;;;;;38.20;19.17;;;3.80;99.90;;;;;;5069979;28;20198;-75
2020/12/03 05:49:02;;;;;;;33.80;16.90;;;4.20;99.90;;;;;;5070033;28;20217;-76
2020/12/03 05:51:32;;;;;;;34.35;19.15;;;4.20;99.90;;;;;;5070354;28;20220;-76
2020/12/03 05:54:02;;;;;;;32.35;17.38;;;4.10;99.90;;;;;;5070812;28;20209;-75
2020/12/03 05:56:31;;;;;;;31.55;17.42;;;4.20;99.90;;;;;;5070806;28;20228;-76
2020/12/03 05:59:12;;;;;;;32.78;18.77;;;3.90;99.90;;;;;;5069877;28;20323;-76
2020/12/03 06:01:42;;;;;;;36.85;18.15;;;4.20;99.90;;;;;;5070435;28;20233;-74
2020/12/03 06:04:20;;;;;;;33.75;17.38;;;4.00;99.90;;;;;;5069323;28;20298;-74
2020/12/03 06:07:10;;;;;;;26.48;14.27;;;4.10;99.90;;;;;;5070045;28;20202;-75
2020/12/03 06:09:55;;;;;;;29.25;15.48;;;4.10;99.90;;;;;;5058628;28;20541;-74
2020/12/03 06:12:42;;;;;;;27.08;15.27;;;4.00;99.90;;;;;;5069032;28;20300;-74
2020/12/03 06:15:27;;;;;;;23.90;14.30;;;4.20;99.90;;;;;;5069943;28;20770;-75
2020/12/03 06:18:10;;;;;;;29.02;16.00;;;4.20;99.90;;;;;;5070245;28;20202;-74
2020/12/03 06:20:52;;;;;;;28.83;15.20;;;4.00;99.90;;;;;;5063616;28;20220;-75
2020/12/03 06:23:54;;;;;;;23.88;13.75;;;3.90;99.90;;;;;;5069497;28;20225;-75
2020/12/03 06:26:33;;;;;;;25.92;13.50;;;4.00;99.90;;;;;;4987689;28;20663;-74
2020/12/03 06:29:44;;;;;;;25.58;14.25;;;4.00;99.90;;;;;;5059841;28;20702;-74
2020/12/03 06:32:40;;;;;;;19.20;11.90;;;4.10;99.90;;;;;;5068866;28;20218;-74
2020/12/03 06:35:20;;;;;;;18.20;11.88;;;4.20;99.90;;;;;;5069693;28;20221;-75
2020/12/03 06:37:56;;;;;;;20.40;12.20;;;4.30;99.90;;;;;;5069376;28;20224;-75
2020/12/03 06:40:27;;;;;;;18.58;11.80;;;4.30;99.90;;;;;;5069676;28;20850;-74
2020/12/03 06:42:57;;;;;;;16.83;12.05;;;4.30;99.90;;;;;;5069646;28;20279;-75
2020/12/03 06:45:35;;;;;;;18.73;11.35;;;4.50;99.90;;;;;;5069822;28;20221;-74
2020/12/03 06:48:34;;;;;;;19.42;11.75;;;4.20;99.90;;;;;;5070273;28;20237;-75
2020/12/03 06:51:24;;;;;;;21.25;12.63;;;4.50;99.90;;;;;;5069867;28;20260;-74
2020/12/03 06:54:27;;;;;;;19.65;11.93;;;4.30;99.90;;;;;;5049601;28;20301;-74
2020/12/03 06:57:36;;;;;;;21.40;13.30;;;4.20;99.90;;;;;;5052971;28;20300;-74
2020/12/03 07:00:48;;;;;;;20.00;12.35;;;4.30;99.90;;;;;;5068934;28;20324;-74
2020/12/03 07:03:39;;;;;;;20.60;14.20;;;4.50;99.90;;;;;;5069031;28;20210;-74
2020/12/03 07:06:47;;;;;;;20.77;13.05;;;4.60;99.90;;;;;;5069438;28;20202;-74
2020/12/03 07:09:43;;;;;;;17.50;11.02;;;4.40;99.90;;;;;;5062150;28;20205;-75
2020/12/03 07:12:34;;;;;;;19.65;11.82;;;4.40;99.90;;;;;;5082848;28;20221;-75
2020/12/03 07:15:33;;;;;;;20.00;12.40;;;4.60;99.90;;;;;;5057603;28;20221;-74
2020/12/03 07:18:41;;;;;;;25.08;12.15;;;4.60;99.90;;;;;;5067691;28;20668;-75
2020/12/03 07:21:55;;;;;;;19.67;12.48;;;4.40;99.90;;;;;;5068297;28;20225;-75
2020/12/03 07:24:26;;;;;;;22.48;11.95;;;4.40;99.90;;;;;;5044246;28;20557;-75
2020/12/03 07:27:15;;;;;;;22.20;12.13;;;4.10;99.90;;;;;;5058917;28;20213;-75
2020/12/03 07:29:55;;;;;;;18.50;11.65;;;4.40;99.90;;;;;;5072528;28;20274;-75
2020/12/03 07:32:34;;;;;;;20.20;12.45;;;4.30;99.90;;;;;;5071830;28;20251;-75
2020/12/03 07:35:09;;;;;;;16.83;10.85;;;4.30;99.90;;;;;;5072243;28;20334;-74
2020/12/03 07:37:45;;;;;;;20.35;11.93;;;4.40;99.90;;;;;;5072408;28;20589;-75
2020/12/03 07:40:19;;;;;;;17.45;11.60;;;4.50;99.90;;;;;;5061970;28;20224;-75
2020/12/03 07:42:46;;;;;;;18.60;11.25;;;4.50;99.90;;;;;;5053006;28;20302;-75
2020/12/03 07:45:33;;;;;;;19.30;11.65;;;4.50;99.90;;;;;;5070388;28;20231;-75
2020/12/03 07:48:09;;;;;;;22.55;10.75;;;4.70;99.90;;;;;;5072279;28;20205;-74
2020/12/03 07:51:10;;;;;;;18.27;11.02;;;4.40;99.90;;;;;;5071910;28;20562;-74
2020/12/03 07:53:37;;;;;;;17.88;10.85;;;4.60;99.90;;;;;;5072508;28;20660;-74
2020/12/03 07:56:33;;;;;;;19.95;12.10;;;4.70;99.90;;;;;;5072299;28;20279;-75
2020/12/03 07:59:36;;;;;;;18.48;11.00;;;4.60;99.90;;;;;;5071603;28;20209;-75
2020/12/03 08:02:24;;;;;;;15.57;9.63;;;4.70;99.90;;;;;;5072153;28;20221;-75
2020/12/03 08:04:51;;;;;;;15.82;9.45;;;4.40;99.90;;;;;;5071935;28;20210;-74
2020/12/03 08:07:30;;;;;;;14.40;7.63;;;4.70;99.90;;;;;;5071981;28;20229;-75
2020/12/03 08:09:58;;;;;;;13.65;7.07;;;4.60;99.90;;;;;;5084611;28;20201;-75
2020/12/03 08:12:28;;;;;;;11.45;6.93;;;4.60;99.90;;;;;;5091816;28;20233;-74
2020/12/03 08:14:55;;;;;;;15.50;9.10;;;4.60;99.90;;;;;;5092190;28;20256;-75
2020/12/03 08:17:49;;;;;;;14.20;9.27;;;4.70;99.90;;;;;;5092030;28;20213;-74
2020/12/03 08:20:22;;;;;;;14.50;7.85;;;4.80;99.90;;;;;;5032850;28;20221;-74
2020/12/03 08:22:52;;;;;;;14.32;8.52;;;5.00;99.90;;;;;;5089898;28;20260;-74
2020/12/03 08:25:22;;;;;;;15.93;8.55;;;5.00;99.90;;;;;;5091850;28;20288;-74
2020/12/03 08:27:58;;;;;;;15.07;9.13;;;5.20;99.90;;;;;;5091904;28;20231;-74
2020/12/03 08:30:37;;;;;;;10.90;7.65;;;5.00;99.90;;;;;;5074634;28;20347;-75
2020/12/03 08:33:12;;;;;;;10.38;6.82;;;4.90;99.90;;;;;;5072058;28;20607;-74
2020/12/03 08:35:48;;;;;;;11.20;6.68;;;4.70;99.90;;;;;;5069468;28;20216;-74
2020/12/03 08:38:14;;;;;;;12.90;8.13;;;4.90;99.90;;;;;;5076169;28;20208;-74
2020/12/03 08:40:41;;;;;;;12.63;7.03;;;4.80;99.90;;;;;;5071312;28;20228;-75
2020/12/03 08:43:10;;;;;;;12.95;8.65;;;4.70;99.90;;;;;;5070846;28;20726;-74
2020/12/03 08:45:47;;;;;;;11.77;7.47;;;4.70;99.90;;;;;;5071225;28;20198;-74
2020/12/03 08:48:18;;;;;;;16.17;9.00;;;4.40;99.90;;;;;;5069749;28;20198;-74
2020/12/03 08:50:44;;;;;;;15.60;9.75;;;4.60;99.90;;;;;;5084525;28;20204;-74
2020/12/03 08:53:12;;;;;;;16.52;10.73;;;4.50;99.90;;;;;;5076929;28;20213;-73
2020/12/03 08:55:40;;;;;;;16.33;9.23;;;4.60;99.90;;;;;;5075078;28;20224;-74
2020/12/03 08:58:09;;;;;;;21.17;9.85;;;4.40;99.90;;;;;;5070807;28;20198;-74
2020/12/03 09:00:41;;;;;;;15.90;9.30;;;4.60;99.90;;;;;;5079366;28;20224;-75
2020/12/03 09:03:12;;;;;;;13.55;9.00;;;4.50;99.90;;;;;;5087519;28;20210;-75
2020/12/03 09:05:43;;;;;;;16.70;10.15;;;4.50;99.90;;;;;;5077283;28;20292;-75
2020/12/03 09:08:17;;;;;;;18.40;9.95;;;4.60;99.90;;;;;;5089720;28;20193;-74
2020/12/03 09:10:44;;;;;;;14.95;10.32;;;4.80;99.90;;;;;;5080151;28;20239;-74
2020/12/03 09:13:11;;;;;;;16.65;9.93;;;4.60;99.90;;;;;;5090404;28;20201;-75
2020/12/03 09:15:38;;;;;;;17.27;10.75;;;4.70;99.90;;;;;;5090942;28;20205;-75
2020/12/03 09:18:06;;;;;;;20.45;10.38;;;4.80;99.90;;;;;;5083105;28;20228;-74
2020/12/03 09:20:33;;;;;;;17.23;10.75;;;4.80;99.90;;;;;;5070940;28;20263;-74
2020/12/03 09:23:00;;;;;;;14.00;9.88;;;4.90;99.90;;;;;;5070787;28;20230;-75
2020/12/03 09:25:27;;;;;;;26.67;12.73;;;4.90;99.90;;;;;;5071142;28;20224;-74
2020/12/03 09:27:55;;;;;;;16.98;10.45;;;4.80;99.90;;;;;;5070401;28;20201;-74
2020/12/03 09:30:24;;;;;;;16.88;10.20;;;4.70;99.90;;;;;;5070879;28;20212;-75
2020/12/03 09:32:56;;;;;;;17.80;11.20;;;4.70;99.90;;;;;;5071010;28;20262;-75
2020/12/03 09:35:23;;;;;;;19.05;12.00;;;4.70;99.90;;;;;;5070860;28;20216;-75
2020/12/03 09:37:51;;;;;;;17.48;10.88;;;4.70;99.90;;;;;;5070374;28;20237;-74
2020/12/03 09:40:20;;;;;;;18.95;11.25;;;4.80;99.90;;;;;;5070231;28;20213;-75
2020/12/03 09:42:49;;;;;;;17.02;11.27;;;5.00;99.90;;;;;;5070172;28;20218;-75
2020/12/03 09:45:22;;;;;;;20.95;11.35;;;5.10;99.90;;;;;;5069830;28;20249;-75
2020/12/03 09:47:50;;;;;;;18.02;11.20;;;5.10;99.90;;;;;;5070400;28;20605;-75
2020/12/03 09:50:16;;;;;;;18.33;10.50;;;4.90;99.90;;;;;;5069606;28;20246;-74
2020/12/03 09:52:44;;;;;;;17.50;9.75;;;5.10;99.90;;;;;;5071050;28;20324;-74
2020/12/03 09:55:13;;;;;;;17.38;11.25;;;5.10;99.90;;;;;;5069764;28;20236;-74
2020/12/03 09:57:45;;;;;;;15.02;9.20;;;5.30;99.90;;;;;;5070490;28;20209;-74
2020/12/03 10:00:15;;;;;;;15.35;9.95;;;5.40;99.90;;;;;;5069584;28;20264;-74
2020/12/03 10:03:20;;;;;;;19.63;10.68;;;5.30;99.90;;;;;;5070203;28;20268;-74
2020/12/03 10:06:02;;;;;;;15.13;10.18;;;5.30;99.90;;;;;;5059270;28;20205;-74
2020/12/03 10:09:00;;;;;;;15.30;9.63;;;5.20;99.90;;;;;;5069675;28;20212;-74
2020/12/03 10:11:47;;;;;;;15.65;10.38;;;5.20;99.90;;;;;;5076751;28;20234;-75
2020/12/03 10:14:40;;;;;;;14.25;9.32;;;5.30;99.90;;;;;;5068555;28;20197;-77
2020/12/03 10:17:10;;;;;;;16.35;10.35;;;5.20;99.90;;;;;;5069816;28;20213;-77
2020/12/03 10:19:41;;;;;;;16.13;10.07;;;5.30;99.90;;;;;;5070754;28;20213;-78
2020/12/03 10:22:14;;;;;;;14.15;8.70;;;5.20;99.90;;;;;;5071456;28;20234;-78
2020/12/03 10:24:47;;;;;;;16.95;11.35;;;5.50;99.90;;;;;;5070960;28;20213;-76
2020/12/03 10:27:20;;;;;;;16.13;8.80;;;5.40;99.90;;;;;;5070781;28;20214;-74
2020/12/03 10:29:58;;;;;;;12.88;8.05;;;5.30;99.90;;;;;;5070302;28;20210;-74
2020/12/03 10:32:26;;;;;;;13.77;8.93;;;5.40;99.90;;;;;;5069823;28;20331;-74
2020/12/03 10:34:55;;;;;;;17.55;8.48;;;5.40;99.90;;;;;;5069025;28;20222;-74
2020/12/03 10:37:33;;;;;;;24.67;9.90;;;5.50;99.90;;;;;;5069269;28;20583;-74
2020/12/03 10:40:04;;;;;;;13.23;7.80;;;5.50;99.90;;;;;;5068895;28;20204;-74
2020/12/03 10:42:37;;;;;;;14.35;8.90;;;5.40;99.90;;;;;;5069248;28;20700;-76
2020/12/03 10:45:11;;;;;;;15.32;9.40;;;5.30;99.90;;;;;;5069162;28;20259;-74
2020/12/03 10:47:46;;;;;;;14.75;8.32;;;5.40;99.90;;;;;;5068751;28;20688;-75
2020/12/03 10:50:16;;;;;;;13.27;9.10;;;5.50;99.90;;;;;;5069091;28;20204;-75
2020/12/03 10:52:44;;;;;;;19.02;8.98;;;5.40;99.90;;;;;;5068732;28;20218;-75
2020/12/03 10:55:16;;;;;;;12.57;8.00;;;5.40;99.90;;;;;;5068945;28;20300;-75
2020/12/03 10:57:53;;;;;;;12.43;8.52;;;5.50;99.90;;;;;;5067446;28;20213;-74
2020/12/03 11:00:22;;;;;;;11.20;8.18;;;5.50;99.90;;;;;;5069037;28;20305;-73
2020/12/03 11:02:52;;;;;;;14.10;8.93;;;5.50;99.90;;;;;;5068867;28;20225;-73
2020/12/03 11:05:19;;;;;;;13.55;8.00;;;5.50;99.90;;;;;;5068286;28;20206;-73
2020/12/03 11:07:57;;;;;;;17.27;10.00;;;5.60;99.90;;;;;;5068858;28;20234;-74
2020/12/03 11:10:24;;;;;;;16.05;8.02;;;5.60;99.90;;;;;;5084490;28;20651;-73
2020/12/03 11:12:52;;;;;;;11.90;8.05;;;5.50;99.90;;;;;;5069735;28;20355;-73
2020/12/03 11:15:21;;;;;;;12.80;8.25;;;5.60;99.90;;;;;;5069076;28;20288;-74
2020/12/03 11:18:02;;;;;;;19.40;9.20;;;5.80;99.90;;;;;;5069235;28;20266;-72
2020/12/03 11:20:33;;;;;;;13.32;7.60;;;5.70;99.90;;;;;;5060672;28;20225;-83
2020/12/03 11:23:08;;;;;;;15.75;9.10;;;5.60;99.90;;;;;;5068513;28;20229;-75
2020/12/03 11:25:36;;;;;;;15.70;8.52;;;5.70;99.90;;;;;;5068592;28;20297;-75
2020/12/03 11:28:11;;;;;;;13.93;8.40;;;5.60;99.90;;;;;;5068949;28;20590;-76
2020/12/03 11:30:38;;;;;;;19.95;11.07;;;5.40;99.90;;;;;;5068997;28;20205;-75
2020/12/03 11:33:05;;;;;;;16.30;9.43;;;5.60;99.90;;;;;;5068949;28;20210;-75
2020/12/03 11:35:34;;;;;;;13.40;8.45;;;5.70;99.90;;;;;;5068699;28;20213;-75
2020/12/03 11:38:03;;;;;;;13.77;8.35;;;5.70;99.90;;;;;;5068168;28;20198;-75
2020/12/03 11:40:37;;;;;;;10.45;7.13;;;5.60;99.90;;;;;;5067976;28;20244;-75
2020/12/03 11:43:23;;;;;;;13.00;7.90;;;5.80;99.90;;;;;;5068987;28;20237;-75
2020/12/03 11:48:52;;;;;;;12.52;8.02;;;5.70;99.90;;;;;;5006552;28;20312;-76
2020/12/03 11:51:32;;;;;;;15.38;8.80;;;5.40;99.90;;;;;;5055822;28;20289;-75
2020/12/03 11:54:00;;;;;;;12.77;7.70;;;5.70;99.90;;;;;;5069011;28;20209;-74
2020/12/03 11:56:28;;;;;;;11.80;7.22;;;5.60;99.90;;;;;;5067873;28;20293;-75
2020/12/03 11:59:13;;;;;;;14.82;7.03;;;5.70;99.90;;;;;;5068268;28;20289;-75
2020/12/03 12:01:41;;;;;;;11.65;7.03;;;5.80;99.90;;;;;;5068506;28;20237;-75
2020/12/03 12:04:11;;;;;;;9.85;6.50;;;5.70;99.90;;;;;;5067864;28;20217;-75
2020/12/03 12:06:50;;;;;;;12.02;6.82;;;5.60;99.90;;;;;;5068148;28;20220;-75
2020/12/03 12:09:22;;;;;;;10.68;5.95;;;5.70;99.90;;;;;;5073975;28;20571;-75
2020/12/03 12:11:48;;;;;;;11.32;6.75;;;5.60;99.90;;;;;;5071310;28;20311;-75
2020/12/03 12:14:15;;;;;;;11.73;6.75;;;5.70;99.90;;;;;;5071630;28;20291;-75
2020/12/03 12:16:43;;;;;;;17.83;7.60;;;5.70;99.90;;;;;;5071303;28;20688;-75
2020/12/03 12:19:09;;;;;;;10.32;6.80;;;5.60;99.90;;;;;;5071730;28;20217;-75
2020/12/03 12:21:38;;;;;;;12.70;7.32;;;5.70;99.90;;;;;;5108567;22;20722;-77
2020/12/03 12:24:04;;;;;;;9.18;6.80;;;5.70;99.90;;;;;;5102213;28;20303;-77
2020/12/03 12:26:31;;;;;;;14.48;6.93;;;5.90;99.90;;;;;;5108069;27;20193;-77
2020/12/03 12:28:58;;;;;;;12.50;7.20;;;5.70;99.90;;;;;;5097136;28;20212;-78
2020/12/03 12:31:24;;;;;;;11.98;7.30;;;5.80;99.90;;;;;;5097228;28;20225;-78
2020/12/03 12:33:52;;;;;;;11.90;7.22;;;5.90;99.90;;;;;;5095443;28;20225;-77
2020/12/03 12:36:18;;;;;;;13.85;7.22;;;5.90;99.90;;;;;;5096079;28;20241;-78
2020/12/03 12:38:45;;;;;;;14.65;7.82;;;6.00;99.90;;;;;;5099729;28;20205;-77
2020/12/03 12:41:12;;;;;;;12.85;6.63;;;5.90;99.90;;;;;;5104627;28;20232;-77
2020/12/03 12:43:38;;;;;;;15.93;7.70;;;5.80;99.90;;;;;;5096752;28;20661;-75
2020/12/03 12:46:05;;;;;;;12.88;7.43;;;5.50;99.90;;;;;;5094418;28;20208;-74
2020/12/03 12:48:32;;;;;;;13.20;7.40;;;5.80;99.90;;;;;;5093341;28;20197;-82
2020/12/03 12:51:00;;;;;;;21.73;7.70;;;5.60;99.90;;;;;;5094473;28;20229;-77
2020/12/03 12:53:26;;;;;;;10.55;6.53;;;5.70;99.90;;;;;;5093360;28;20840;-77
2020/12/03 12:55:53;;;;;;;10.35;6.68;;;5.90;99.90;;;;;;5093948;28;20205;-77
2020/12/03 12:58:20;;;;;;;10.57;6.75;;;5.90;99.90;;;;;;5092559;28;20197;-77
2020/12/03 13:00:46;;;;;;;16.45;7.80;;;6.10;99.90;;;;;;5094169;28;20229;-75
2020/12/03 13:03:14;;;;;;;10.93;6.68;;;6.10;99.90;;;;;;5094004;28;20212;-77
2020/12/03 13:05:40;;;;;;;13.30;7.82;;;5.90;99.90;;;;;;5093888;28;20205;-77
2020/12/03 13:08:08;;;;;;;17.23;6.88;;;5.80;99.90;;;;;;5093101;28;20212;-77
2020/12/03 13:10:34;;;;;;;10.13;7.00;;;5.90;99.90;;;;;;5094499;28;20217;-78